RNN weather

Bornholm Airport
Rønne, Capital Region, Denmark

Public forecast

Using degrees Celsius for public forecast. Weather courtesy of forecast.io.

METAR (pilot weather report)

Retrieved 2019/05/24 18:20 UTC (0 seconds ago):

EKRN 241820Z AUTO 24006KT 9999 FEW059/// OVC098/// 12/10 Q1009

TAF (pilot weather forecast)

Closest forecast is Malmö Sturup Airport, 55.2 nm (102.1 km) WNW. Retrieved 2019/05/24 12:34 UTC (6 hours ago):

TAF ESMS 241058Z 2412/2512 22015KT 9999 BKN020 BECMG 2415/2418 28008KT TEMPO 2504/2508 BKN012